createdAt,value
2022-10-25T00:00:15.022Z,8.50
2022-10-25T00:02:44.619Z,8.50
2022-10-25T00:05:13.638Z,8.50
2022-10-25T00:07:41.911Z,8.60
2022-10-25T00:10:10.625Z,8.50
2022-10-25T00:12:42.301Z,8.50
2022-10-25T00:15:11.090Z,8.60
2022-10-25T00:17:39.321Z,8.60
2022-10-25T00:20:09.491Z,8.60
2022-10-25T00:22:37.858Z,8.60
2022-10-25T00:25:06.542Z,8.60
2022-10-25T00:27:34.707Z,8.60
2022-10-25T00:30:03.161Z,8.60
2022-10-25T00:32:31.504Z,8.60
2022-10-25T00:34:59.536Z,8.60
2022-10-25T00:37:29.155Z,8.60
2022-10-25T00:39:57.227Z,8.70
2022-10-25T00:42:27.056Z,8.60
2022-10-25T00:44:56.687Z,8.70
2022-10-25T00:47:43.403Z,8.70
2022-10-25T00:50:18.290Z,8.70
2022-10-25T00:52:50.149Z,8.70
2022-10-25T00:55:20.276Z,8.70
2022-10-25T00:57:49.644Z,8.70
2022-10-25T01:00:18.006Z,8.80
2022-10-25T01:02:46.474Z,8.70
2022-10-25T01:05:14.960Z,8.80
2022-10-25T01:07:43.063Z,8.80
2022-10-25T01:10:12.730Z,8.80
2022-10-25T01:12:41.027Z,8.80
2022-10-25T01:15:09.799Z,8.80
2022-10-25T01:17:44.886Z,8.80
2022-10-25T01:20:27.880Z,8.80
2022-10-25T01:23:00.542Z,8.80
2022-10-25T01:25:50.555Z,8.80
2022-10-25T01:28:25.172Z,8.70
2022-10-25T01:31:00.698Z,8.70
2022-10-25T01:33:32.322Z,8.70
2022-10-25T01:36:03.614Z,8.70
2022-10-25T01:38:35.279Z,8.70
2022-10-25T01:41:09.346Z,8.70
2022-10-25T01:43:42.157Z,8.60
2022-10-25T01:46:14.401Z,8.60
2022-10-25T01:48:44.527Z,8.60
2022-10-25T01:51:16.209Z,8.60
2022-10-25T01:53:47.949Z,8.60
2022-10-25T01:56:18.614Z,8.60
2022-10-25T01:58:52.160Z,8.60
2022-10-25T02:01:25.345Z,8.60
2022-10-25T02:03:57.164Z,8.60
2022-10-25T02:06:30.751Z,8.60
2022-10-25T02:09:03.745Z,8.60
2022-10-25T02:11:32.626Z,8.60
2022-10-25T02:14:04.302Z,8.60
2022-10-25T02:16:37.774Z,8.60
2022-10-25T02:19:10.233Z,8.70
2022-10-25T02:21:38.463Z,8.70
2022-10-25T02:24:13.043Z,8.70
2022-10-25T02:26:44.538Z,8.70
2022-10-25T02:29:13.203Z,8.70
2022-10-25T02:31:43.080Z,8.70
2022-10-25T02:34:11.329Z,8.70
2022-10-25T02:36:39.401Z,8.70
2022-10-25T02:39:10.559Z,8.70
2022-10-25T02:41:38.946Z,8.70
2022-10-25T02:44:07.013Z,8.70
2022-10-25T02:46:35.190Z,8.80
2022-10-25T02:49:04.859Z,8.80
2022-10-25T02:51:33.092Z,8.70
2022-10-25T02:54:03.724Z,8.80
2022-10-25T02:56:31.797Z,8.80
2022-10-25T02:58:59.908Z,8.80
2022-10-25T03:01:28.075Z,8.80
2022-10-25T03:03:56.265Z,8.80
2022-10-25T03:06:26.445Z,8.80
2022-10-25T03:08:54.671Z,8.80
2022-10-25T03:11:22.754Z,8.80
2022-10-25T03:13:50.794Z,8.80
2022-10-25T03:16:19.051Z,8.90
2022-10-25T03:18:47.217Z,8.90
2022-10-25T03:21:15.373Z,9.10
2022-10-25T03:23:44.881Z,8.90
2022-10-25T03:26:12.980Z,9.00
2022-10-25T03:28:41.109Z,9.00
2022-10-25T03:31:12.474Z,9.00
2022-10-25T03:33:40.542Z,9.00
2022-10-25T03:36:09.017Z,9.00
2022-10-25T03:38:37.378Z,9.00
2022-10-25T03:41:07.298Z,9.00
2022-10-25T03:43:35.400Z,9.10
2022-10-25T03:46:03.572Z,9.10
2022-10-25T03:48:32.319Z,9.10
2022-10-25T03:51:00.382Z,9.10
2022-10-25T03:53:28.654Z,9.20
2022-10-25T03:55:56.758Z,9.20
2022-10-25T03:58:26.330Z,9.20
2022-10-25T04:00:54.434Z,9.20
2022-10-25T04:03:22.672Z,9.20
2022-10-25T04:05:50.829Z,9.20
2022-10-25T04:08:19.047Z,9.20
2022-10-25T04:10:51.080Z,9.20
2022-10-25T04:13:19.193Z,9.20
2022-10-25T04:15:48.727Z,9.20
2022-10-25T04:18:16.793Z,9.30
2022-10-25T04:20:44.834Z,9.30
2022-10-25T04:23:13.111Z,9.20
2022-10-25T04:25:41.250Z,9.30
2022-10-25T04:28:11.653Z,9.30
2022-10-25T04:30:39.927Z,9.30
2022-10-25T04:33:09.450Z,9.30
2022-10-25T04:35:37.516Z,9.30
2022-10-25T04:38:05.594Z,9.30
2022-10-25T04:40:33.741Z,9.30
2022-10-25T04:43:02.692Z,9.30
2022-10-25T04:45:31.212Z,9.30
2022-10-25T04:47:59.266Z,9.30
2022-10-25T04:50:28.926Z,9.40
2022-10-25T04:52:57.052Z,9.30
2022-10-25T04:55:25.351Z,9.40
2022-10-25T04:57:53.435Z,9.40
2022-10-25T05:00:21.712Z,9.40
2022-10-25T05:02:52.237Z,9.40
2022-10-25T05:05:23.446Z,9.50
2022-10-25T05:07:53.004Z,9.50
2022-10-25T05:10:21.062Z,9.50
2022-10-25T05:12:51.216Z,9.50
2022-10-25T05:15:19.263Z,9.50
2022-10-25T05:17:47.586Z,9.50
2022-10-25T05:20:15.700Z,9.60
2022-10-25T05:22:44.108Z,9.60
2022-10-25T05:25:13.968Z,9.60
2022-10-25T05:27:42.053Z,9.70
2022-10-25T05:30:10.803Z,9.70
2022-10-25T05:32:39.005Z,9.70
2022-10-25T05:35:09.174Z,9.70
2022-10-25T05:37:37.238Z,9.70
2022-10-25T05:40:05.666Z,9.70
2022-10-25T05:42:35.290Z,9.70
2022-10-25T05:45:03.347Z,9.70
2022-10-25T05:47:31.627Z,9.70
2022-10-25T05:49:59.732Z,9.80
2022-10-25T05:52:28.036Z,9.70
2022-10-25T05:54:56.078Z,9.80
2022-10-25T05:57:28.713Z,9.80
2022-10-25T05:59:58.301Z,9.80
2022-10-25T06:02:26.469Z,9.80
2022-10-25T06:04:54.671Z,9.80
2022-10-25T06:07:22.693Z,9.80
2022-10-25T06:09:51.113Z,9.80
2022-10-25T06:12:19.146Z,9.80
2022-10-25T06:14:47.387Z,9.80
2022-10-25T06:17:16.879Z,9.80
2022-10-25T06:19:45.109Z,9.80
2022-10-25T06:22:14.371Z,9.80
2022-10-25T06:24:42.447Z,9.80
2022-10-25T06:27:13.046Z,9.90
2022-10-25T06:29:41.150Z,9.90
2022-10-25T06:32:09.349Z,9.90
2022-10-25T06:34:38.837Z,9.90
2022-10-25T06:37:09.910Z,9.90
2022-10-25T06:39:38.205Z,9.90
2022-10-25T06:42:06.383Z,9.90
2022-10-25T06:44:34.697Z,9.90
2022-10-25T06:47:16.883Z,9.90
2022-10-25T06:49:48.314Z,9.90
2022-10-25T06:52:16.466Z,9.90
2022-10-25T06:54:44.601Z,9.90
2022-10-25T06:57:12.843Z,9.90
2022-10-25T06:59:42.843Z,9.90
2022-10-25T07:02:11.070Z,9.90
2022-10-25T07:04:39.371Z,9.90
2022-10-25T07:07:08.855Z,10.00
2022-10-25T07:09:37.150Z,10.00
2022-10-25T07:12:08.790Z,10.00
2022-10-25T07:14:40.548Z,10.00
2022-10-25T07:17:08.841Z,10.00
2022-10-25T07:19:37.162Z,10.10
2022-10-25T07:22:05.222Z,10.00
2022-10-25T07:24:34.890Z,10.00
2022-10-25T07:35:23.667Z,10.10
2022-10-25T07:37:53.131Z,10.10
2022-10-25T07:40:22.655Z,10.10
2022-10-25T07:42:50.996Z,10.20
2022-10-25T07:45:24.438Z,10.20
2022-10-25T07:59:22.129Z,10.30
2022-10-25T08:01:50.244Z,10.30
2022-10-25T08:04:18.647Z,10.40
2022-10-25T08:06:46.728Z,10.30
2022-10-25T08:09:33.387Z,10.40
2022-10-25T08:12:03.189Z,10.40
2022-10-25T08:14:38.084Z,10.40
2022-10-25T08:17:08.954Z,10.50
2022-10-25T08:19:37.050Z,10.40
2022-10-25T08:22:07.115Z,10.40
2022-10-25T08:24:36.192Z,10.50
2022-10-25T08:27:04.252Z,10.80
2022-10-25T08:29:33.901Z,10.40
2022-10-25T08:32:02.099Z,10.40
2022-10-25T08:34:33.070Z,10.40
2022-10-25T08:37:01.502Z,10.40
2022-10-25T08:39:29.545Z,10.50
2022-10-25T08:41:58.903Z,10.50
2022-10-25T08:44:44.788Z,10.50
2022-10-25T08:47:18.450Z,10.50
2022-10-25T08:49:52.056Z,10.60
2022-10-25T08:52:23.309Z,10.60
2022-10-25T08:54:51.379Z,10.60
2022-10-25T08:57:23.578Z,10.60
2022-10-25T08:59:53.015Z,10.60
2022-10-25T09:02:25.502Z,10.70
2022-10-25T09:04:54.497Z,10.70
2022-10-25T09:07:49.769Z,10.70
2022-10-25T09:10:23.059Z,10.70
2022-10-25T09:12:57.385Z,10.80
2022-10-25T09:15:32.228Z,10.80
2022-10-25T09:18:03.813Z,10.80
2022-10-25T09:20:34.126Z,10.80
2022-10-25T09:23:06.202Z,10.80
2022-10-25T09:25:37.789Z,10.90
2022-10-25T09:39:35.486Z,10.80
2022-10-25T09:42:04.362Z,10.80
2022-10-25T09:44:36.517Z,10.80
2022-10-25T09:47:11.217Z,10.90
2022-10-25T09:49:41.982Z,10.80
2022-10-25T09:52:16.485Z,10.90
2022-10-25T09:54:50.673Z,10.90
2022-10-25T09:57:18.919Z,10.90
2022-10-25T09:59:50.142Z,10.80
2022-10-25T10:02:20.407Z,11.20
2022-10-25T10:04:48.720Z,10.90
2022-10-25T10:07:20.053Z,10.50
2022-10-25T10:09:50.248Z,10.90
2022-10-25T10:12:21.930Z,11.00
2022-10-25T10:14:54.910Z,11.00
2022-10-25T10:17:23.058Z,11.00
2022-10-25T10:20:08.430Z,11.00
2022-10-25T10:22:37.797Z,11.10
2022-10-25T10:25:07.731Z,11.00
2022-10-25T10:27:36.037Z,11.00
2022-10-25T10:30:09.745Z,11.00
2022-10-25T10:32:39.053Z,11.10
2022-10-25T10:35:08.362Z,11.10
2022-10-25T10:37:38.034Z,11.10
2022-10-25T10:40:24.985Z,11.10
2022-10-25T10:42:55.782Z,11.20
2022-10-25T10:45:26.443Z,11.60
2022-10-25T10:47:58.161Z,11.20
2022-10-25T10:50:28.927Z,11.20
2022-10-25T10:53:00.144Z,11.20
2022-10-25T10:55:31.683Z,11.20
2022-10-25T10:58:02.767Z,11.10
2022-10-25T11:00:31.749Z,11.10
2022-10-25T11:02:59.830Z,11.10
2022-10-25T11:05:28.627Z,11.20
2022-10-25T11:08:01.006Z,11.10
2022-10-25T11:10:34.496Z,10.80
2022-10-25T11:13:20.228Z,11.10
2022-10-25T11:15:56.196Z,11.10
2022-10-25T11:18:28.994Z,11.10
2022-10-25T11:21:00.691Z,11.00
2022-10-25T11:23:31.563Z,11.10
2022-10-25T11:26:03.596Z,11.10
2022-10-25T11:28:38.709Z,11.10
2022-10-25T11:31:14.691Z,11.20
2022-10-25T11:33:46.475Z,11.20
2022-10-25T11:36:23.012Z,11.10
2022-10-25T11:38:56.868Z,11.20
2022-10-25T11:41:38.127Z,11.20
2022-10-25T11:44:15.393Z,11.20
2022-10-25T11:46:47.395Z,11.20
2022-10-25T11:49:23.017Z,11.30
2022-10-25T11:51:55.114Z,11.30
2022-10-25T11:54:28.845Z,11.30
2022-10-25T11:57:04.021Z,11.30
2022-10-25T11:59:37.259Z,11.30
2022-10-25T12:02:22.502Z,11.30
2022-10-25T12:05:00.369Z,11.30
2022-10-25T12:07:31.455Z,11.30
2022-10-25T12:10:03.801Z,11.40
2022-10-25T12:12:42.212Z,11.40
2022-10-25T12:15:13.549Z,11.40
2022-10-25T12:17:42.135Z,11.40
2022-10-25T12:20:17.083Z,11.40
2022-10-25T12:22:46.939Z,11.40
2022-10-25T12:25:16.633Z,11.50
2022-10-25T12:27:47.233Z,11.50
2022-10-25T12:30:16.770Z,11.60
2022-10-25T12:32:46.887Z,11.60
2022-10-25T12:35:20.297Z,11.60
2022-10-25T12:37:55.024Z,11.60
2022-10-25T12:40:26.717Z,11.70
2022-10-25T12:42:57.486Z,11.70
2022-10-25T12:45:33.506Z,11.70
2022-10-25T12:48:10.509Z,11.70
2022-10-25T12:50:55.595Z,11.80
2022-10-25T12:53:42.206Z,11.70
2022-10-25T12:56:18.342Z,11.70
2022-10-25T12:58:56.095Z,11.80
2022-10-25T13:01:32.137Z,11.90
2022-10-25T13:04:15.183Z,11.90
2022-10-25T13:06:45.120Z,11.90
2022-10-25T13:09:14.794Z,11.80
2022-10-25T13:11:44.508Z,11.80
2022-10-25T13:14:26.541Z,11.90
2022-10-25T13:17:14.679Z,11.90
2022-10-25T13:22:37.411Z,12.00
2022-10-25T13:25:07.471Z,12.00
2022-10-25T13:27:37.107Z,12.00
2022-10-25T13:30:23.534Z,12.00
2022-10-25T13:33:10.262Z,12.00
2022-10-25T13:35:59.991Z,11.90
2022-10-25T13:38:31.753Z,11.90
2022-10-25T13:41:11.748Z,11.90
2022-10-25T13:43:55.099Z,11.90
2022-10-25T13:46:25.380Z,11.90
2022-10-25T13:48:55.034Z,11.90
2022-10-25T13:51:23.306Z,11.90
2022-10-25T13:53:54.244Z,11.90
2022-10-25T13:56:34.304Z,11.80
2022-10-25T14:10:04.033Z,11.70
2022-10-25T14:12:32.331Z,11.60
2022-10-25T14:15:04.063Z,12.30
2022-10-25T14:17:33.922Z,11.60
2022-10-25T14:20:03.288Z,11.60
2022-10-25T14:22:34.540Z,11.60
2022-10-25T14:25:06.294Z,11.60
2022-10-25T14:27:35.647Z,11.50
2022-10-25T14:30:23.020Z,11.60
2022-10-25T14:32:51.933Z,11.60
2022-10-25T14:35:20.380Z,11.60
2022-10-25T14:37:48.906Z,11.60
2022-10-25T14:40:21.067Z,11.50
2022-10-25T14:42:49.565Z,11.50
2022-10-25T14:45:19.495Z,11.50
2022-10-25T14:47:47.627Z,11.50
2022-10-25T14:50:16.347Z,11.50
2022-10-25T14:52:46.124Z,11.50
2022-10-25T14:55:20.501Z,11.50
2022-10-25T14:57:48.714Z,11.40
2022-10-25T15:00:21.084Z,11.40
2022-10-25T15:02:55.436Z,11.40
2022-10-25T15:05:24.522Z,11.40
2022-10-25T15:07:55.341Z,11.40
2022-10-25T15:10:36.611Z,11.40
2022-10-25T15:13:05.803Z,11.30
2022-10-25T15:15:35.778Z,11.40
2022-10-25T15:18:05.521Z,11.40
2022-10-25T15:20:34.577Z,11.40
2022-10-25T15:23:04.171Z,11.40
2022-10-25T15:25:33.239Z,11.40
2022-10-25T15:28:12.137Z,11.30
2022-10-25T15:30:41.002Z,11.30
2022-10-25T15:33:10.784Z,11.30
2022-10-25T15:35:42.403Z,11.30
2022-10-25T15:38:11.703Z,11.30
2022-10-25T15:40:39.784Z,11.30
2022-10-25T15:43:08.045Z,11.30
2022-10-25T15:45:38.151Z,11.20
2022-10-25T15:48:06.973Z,11.20
2022-10-25T15:50:35.235Z,11.30
2022-10-25T15:53:03.362Z,11.30
2022-10-25T15:55:33.306Z,11.30
2022-10-25T15:58:01.636Z,11.30
2022-10-25T16:00:31.055Z,11.30
2022-10-25T16:03:02.915Z,11.10
2022-10-25T16:05:32.870Z,11.30
2022-10-25T16:08:01.104Z,11.30
2022-10-25T16:10:30.472Z,11.30
2022-10-25T16:12:59.950Z,11.30
2022-10-25T16:15:28.228Z,11.40
2022-10-25T16:17:56.387Z,11.30
2022-10-25T16:20:27.161Z,11.40
2022-10-25T16:22:56.049Z,11.40
2022-10-25T16:25:29.076Z,11.40
2022-10-25T16:28:01.694Z,11.40
2022-10-25T16:30:34.079Z,11.40
2022-10-25T16:33:02.670Z,11.30
2022-10-25T16:35:32.158Z,11.30
2022-10-25T16:38:00.614Z,11.30
2022-10-25T16:40:28.840Z,11.20
2022-10-25T16:42:58.443Z,11.20
2022-10-25T16:45:27.624Z,11.20
2022-10-25T16:47:56.737Z,11.20
2022-10-25T16:50:25.483Z,11.20
2022-10-25T16:52:58.761Z,11.20
2022-10-25T16:55:28.894Z,11.20
2022-10-25T16:57:57.023Z,11.20
2022-10-25T17:00:26.951Z,11.20
2022-10-25T17:02:55.115Z,11.30
2022-10-25T17:05:23.948Z,11.30
2022-10-25T17:07:53.257Z,11.20
2022-10-25T17:10:24.026Z,11.30
2022-10-25T17:12:53.285Z,11.30
2022-10-25T17:15:21.932Z,11.20
2022-10-25T17:17:50.448Z,11.20
2022-10-25T17:20:19.103Z,11.20
2022-10-25T17:22:49.009Z,11.20
2022-10-25T17:25:17.190Z,11.20
2022-10-25T17:27:50.290Z,12.20
2022-10-25T17:30:22.205Z,11.30
2022-10-25T17:32:52.644Z,11.00
2022-10-25T17:35:27.135Z,11.20
2022-10-25T17:37:57.890Z,11.30
2022-10-25T17:40:25.990Z,11.30
2022-10-25T17:42:57.709Z,11.20
2022-10-25T17:45:28.528Z,11.20
2022-10-25T17:47:56.639Z,11.30
2022-10-25T17:50:24.958Z,11.30
2022-10-25T17:52:53.410Z,11.30
2022-10-25T17:55:21.535Z,11.30
2022-10-25T17:57:50.170Z,11.30
2022-10-25T18:00:20.578Z,11.30
2022-10-25T18:02:52.371Z,11.30
2022-10-25T18:05:21.776Z,11.40
2022-10-25T18:07:51.180Z,11.30
2022-10-25T18:10:19.864Z,11.30
2022-10-25T18:12:48.433Z,11.30
2022-10-25T18:15:19.713Z,11.30
2022-10-25T18:17:49.705Z,11.30
2022-10-25T18:20:18.260Z,11.40
2022-10-25T18:22:46.671Z,11.30
2022-10-25T18:25:14.841Z,11.30
2022-10-25T18:27:42.918Z,11.30
2022-10-25T18:30:11.987Z,11.30
2022-10-25T18:32:40.086Z,11.30
2022-10-25T18:35:10.243Z,11.30
2022-10-25T18:37:38.798Z,11.40
2022-10-25T18:40:10.840Z,11.30
2022-10-25T18:42:39.120Z,11.30
2022-10-25T18:45:07.913Z,11.30
2022-10-25T18:47:36.108Z,11.40
2022-10-25T18:50:05.015Z,11.30
2022-10-25T18:52:34.477Z,11.40
2022-10-25T18:55:02.899Z,11.30
2022-10-25T18:57:31.716Z,11.40
2022-10-25T18:59:59.819Z,11.40
2022-10-25T19:02:28.000Z,11.30
2022-10-25T19:04:56.233Z,11.30
2022-10-25T19:07:24.383Z,11.30
2022-10-25T19:09:54.241Z,11.30
2022-10-25T19:12:22.441Z,11.30
2022-10-25T19:14:50.594Z,11.30
2022-10-25T19:17:19.777Z,11.30
2022-10-25T19:19:47.875Z,11.30
2022-10-25T19:22:19.122Z,11.40
2022-10-25T19:24:48.047Z,11.30
2022-10-25T19:27:17.593Z,11.30
2022-10-25T19:29:45.877Z,11.30
2022-10-25T19:32:13.949Z,11.30
2022-10-25T19:34:42.099Z,11.30
2022-10-25T19:37:11.318Z,11.30
2022-10-25T19:39:39.382Z,11.30
2022-10-25T19:42:07.529Z,11.30
2022-10-25T19:44:37.173Z,11.30
2022-10-25T19:47:05.335Z,11.30
2022-10-25T19:49:33.543Z,11.30
2022-10-25T19:52:01.634Z,11.30
2022-10-25T19:54:29.679Z,11.30
2022-10-25T19:56:57.890Z,11.30
2022-10-25T19:59:28.067Z,11.20
2022-10-25T20:01:57.615Z,11.30
2022-10-25T20:04:25.955Z,11.30
2022-10-25T20:06:54.306Z,11.30
2022-10-25T20:09:22.716Z,11.30
2022-10-25T20:11:50.765Z,11.30
2022-10-25T20:14:18.885Z,11.20
2022-10-25T20:16:46.941Z,11.20
2022-10-25T20:19:16.614Z,11.20
2022-10-25T20:21:44.797Z,11.30
2022-10-25T20:24:12.906Z,11.20
2022-10-25T20:26:42.243Z,11.30
2022-10-25T20:29:18.463Z,11.30
2022-10-25T20:31:49.205Z,11.20
2022-10-25T20:34:19.082Z,11.30
2022-10-25T20:36:47.346Z,11.20
2022-10-25T20:39:15.483Z,11.20
2022-10-25T20:41:43.709Z,11.20
2022-10-25T20:44:12.359Z,11.20
2022-10-25T20:46:40.409Z,11.20
2022-10-25T20:49:08.754Z,11.20
2022-10-25T20:51:38.204Z,11.20
2022-10-25T20:54:09.943Z,11.20
2022-10-25T20:56:39.623Z,11.20
2022-10-25T20:59:08.190Z,11.20
2022-10-25T21:01:36.664Z,11.20
2022-10-25T21:04:04.830Z,11.20
2022-10-25T21:06:33.107Z,11.20
2022-10-25T21:09:02.701Z,11.20
2022-10-25T21:11:30.863Z,11.10
2022-10-25T21:13:58.937Z,11.10
2022-10-25T21:16:27.181Z,11.10
2022-10-25T21:18:55.262Z,11.10
2022-10-25T21:21:23.487Z,11.10
2022-10-25T21:23:55.716Z,11.10
2022-10-25T21:26:25.249Z,11.10
2022-10-25T21:28:53.410Z,11.10
2022-10-25T21:31:21.705Z,11.10
2022-10-25T21:33:51.848Z,11.10
2022-10-25T21:36:21.736Z,11.10
2022-10-25T21:38:49.848Z,11.10
2022-10-25T21:41:19.842Z,11.00
2022-10-25T21:43:49.828Z,11.00
2022-10-25T21:46:18.781Z,11.00
2022-10-25T21:48:48.054Z,11.00
2022-10-25T21:51:16.287Z,10.90
2022-10-25T21:53:44.668Z,10.90
2022-10-25T21:56:13.628Z,10.90
2022-10-25T21:58:42.628Z,10.90
2022-10-25T22:01:13.247Z,10.80
2022-10-25T22:03:41.925Z,10.80
2022-10-25T22:06:10.713Z,10.80
2022-10-25T22:08:39.433Z,10.80
2022-10-25T22:11:08.977Z,11.40
2022-10-25T22:13:37.131Z,10.80
2022-10-25T22:16:06.477Z,10.80
2022-10-25T22:18:36.277Z,10.80
2022-10-25T22:21:05.694Z,10.70
2022-10-25T22:23:34.260Z,10.70
2022-10-25T22:26:03.191Z,10.70
2022-10-25T22:28:33.303Z,10.70
2022-10-25T22:31:04.233Z,10.70
2022-10-25T22:33:34.722Z,10.70
2022-10-25T22:38:38.178Z,10.70
2022-10-25T22:41:07.185Z,10.70
2022-10-25T22:43:38.683Z,10.60
2022-10-25T22:46:07.636Z,10.70
2022-10-25T22:48:36.906Z,10.70
2022-10-25T22:51:06.798Z,10.60
2022-10-25T22:53:35.361Z,10.60
2022-10-25T22:56:04.745Z,10.60
2022-10-25T22:58:33.617Z,10.60
2022-10-25T23:03:37.316Z,10.60
2022-10-25T23:06:07.386Z,10.60
2022-10-25T23:08:35.686Z,10.60
2022-10-25T23:11:05.133Z,10.50
2022-10-25T23:13:33.950Z,10.60
2022-10-25T23:16:02.549Z,10.60
2022-10-25T23:18:30.638Z,10.50
2022-10-25T23:21:00.134Z,10.50
2022-10-25T23:23:30.235Z,10.50
2022-10-25T23:26:00.448Z,10.50
2022-10-25T23:28:31.318Z,10.50
2022-10-25T23:31:03.936Z,10.50
2022-10-25T23:33:32.374Z,10.50
2022-10-25T23:36:02.658Z,10.50
2022-10-25T23:38:32.339Z,10.50
2022-10-25T23:41:00.555Z,10.50
2022-10-25T23:43:28.902Z,10.50
2022-10-25T23:45:56.963Z,10.50
2022-10-25T23:48:25.227Z,10.50
2022-10-25T23:50:57.671Z,10.50
2022-10-25T23:53:25.804Z,10.50
2022-10-25T23:55:56.177Z,10.40
2022-10-25T23:58:24.830Z,10.50
